Terminal Aerodrome Forecast
Issued by NWS

Home | Current Version | Previous Version | Text Only | Print | Product List | Glossary On
Versions: 1 2 3 4 5 6 7 8 9 10 11 12 13 14 15 16 17 18 19 20 21 22 23 24 25 26 27 28 29 30
000
FTUS44 KHGX 271738
TAFIAH
TAF
KIAH 271738Z 2718/2824 03004KT P6SM VCSH FEW040 BKN140 OVC250
     FM272000 06010KT P6SM SHRA SCT040 BKN120
      TEMPO 2721/2723 SHRA
     FM272300 05005KT P6SM VCTS SCT030CB OVC120
      TEMPO 2723/2803 TSRA BKN030CB
     FM280400 07004KT P6SM SCT050 BKN120
     FM281100 02004KT P6SM VCSH SCT015 BKN250
     FM281700 03006KT P6SM VCTS BKN035CB OVC100=

USA.gov is the U.S. government's official web portal to all federal, state and local government web resources and services.